Time;durP1;ratioP1;P1;durP2;ratioP2;P2;SDS_P1;SDS_P2;PMS_P1;PMS_P2;Temp;Humidity;BMP_temperature;BMP_pressure;BME280_temperature;BME280_humidity;BME280_pressure;Samples;Min_cycle;Max_cycle;Signal;HPM_P1;HPM_P2
2021/09/25 00:00:02;;;;;;;10.82;6.28;;;;;;;;;;5071566;28;20044;-59
2021/09/25 00:02:28;;;;;;;13.13;6.45;;;;;;;;;;5071143;28;20021;-60
2021/09/25 00:04:54;;;;;;;10.95;6.13;;;;;;;;;;5066663;28;20021;-60
2021/09/25 00:07:20;;;;;;;12.57;6.20;;;;;;;;;;5069451;28;20028;-60
2021/09/25 00:09:45;;;;;;;12.68;6.95;;;;;;;;;;5070823;28;20457;-60
2021/09/25 00:12:12;;;;;;;10.65;6.45;;;;;;;;;;5071785;28;20028;-60
2021/09/25 00:14:39;;;;;;;9.75;5.35;;;;;;;;;;5071753;28;20555;-60
2021/09/25 00:17:06;;;;;;;13.13;7.13;;;;;;;;;;5071249;28;20459;-60
2021/09/25 00:19:32;;;;;;;12.40;6.70;;;;;;;;;;5062095;28;20072;-59
2021/09/25 00:21:58;;;;;;;12.55;6.20;;;;;;;;;;5066365;28;20067;-59
2021/09/25 00:24:24;;;;;;;7.85;5.15;;;;;;;;;;5071827;28;20024;-60
2021/09/25 00:26:50;;;;;;;13.75;7.15;;;;;;;;;;5071295;28;20024;-60
2021/09/25 00:29:16;;;;;;;9.82;5.47;;;;;;;;;;5071206;28;20452;-60
2021/09/25 00:31:42;;;;;;;10.88;6.28;;;;;;;;;;5069921;28;20099;-60
2021/09/25 00:34:08;;;;;;;9.93;6.28;;;;;;;;;;5065368;28;20039;-60
2021/09/25 00:36:34;;;;;;;10.95;6.20;;;;;;;;;;5071743;28;20032;-60
2021/09/25 00:39:00;;;;;;;12.50;6.32;;;;;;;;;;5071033;28;20020;-59
2021/09/25 00:41:26;;;;;;;9.13;5.63;;;;;;;;;;5071501;28;20147;-60
2021/09/25 00:43:53;;;;;;;11.90;6.60;;;;;;;;;;5071512;28;20040;-60
2021/09/25 00:46:20;;;;;;;8.98;6.13;;;;;;;;;;5071279;28;20062;-60
2021/09/25 00:48:46;;;;;;;13.00;7.20;;;;;;;;;;5069526;28;20079;-59
2021/09/25 00:51:12;;;;;;;12.20;7.03;;;;;;;;;;5071146;28;20032;-60
2021/09/25 00:53:39;;;;;;;10.35;5.68;;;;;;;;;;5071271;28;20024;-60
2021/09/25 00:56:05;;;;;;;11.27;5.93;;;;;;;;;;5071302;28;20024;-59
2021/09/25 00:58:31;;;;;;;13.00;6.15;;;;;;;;;;5067107;28;20040;-60
2021/09/25 01:00:57;;;;;;;12.05;5.60;;;;;;;;;;5071525;28;20401;-58
2021/09/25 01:03:23;;;;;;;13.32;6.70;;;;;;;;;;5071112;28;20039;-60
2021/09/25 01:05:49;;;;;;;10.93;5.60;;;;;;;;;;5071425;28;20028;-60
2021/09/25 01:08:15;;;;;;;8.85;5.28;;;;;;;;;;5065418;28;20083;-59
2021/09/25 01:10:41;;;;;;;11.23;6.28;;;;;;;;;;5070472;28;20103;-61
2021/09/25 01:13:07;;;;;;;12.07;6.22;;;;;;;;;;5071346;28;20058;-60
2021/09/25 01:15:33;;;;;;;12.90;6.03;;;;;;;;;;5071427;28;20120;-60
2021/09/25 01:17:59;;;;;;;10.55;6.15;;;;;;;;;;5069819;28;20174;-60
2021/09/25 01:20:25;;;;;;;12.27;6.28;;;;;;;;;;5069927;28;20037;-60
2021/09/25 01:22:51;;;;;;;8.77;5.88;;;;;;;;;;5070801;28;20034;-61
2021/09/25 01:25:17;;;;;;;12.20;6.22;;;;;;;;;;5069981;28;20107;-60
2021/09/25 01:27:43;;;;;;;8.15;5.20;;;;;;;;;;5066974;28;20756;-60
2021/09/25 01:30:12;;;;;;;10.57;6.50;;;;;;;;;;5071160;28;20116;-60
2021/09/25 01:32:38;;;;;;;9.90;5.85;;;;;;;;;;5072967;28;20030;-60
2021/09/25 01:35:05;;;;;;;7.95;5.30;;;;;;;;;;5070967;28;20115;-59
2021/09/25 01:37:30;;;;;;;9.85;5.75;;;;;;;;;;5071040;28;20364;-60
2021/09/25 01:39:56;;;;;;;13.02;6.43;;;;;;;;;;5069815;28;20040;-60
2021/09/25 01:42:23;;;;;;;9.50;5.63;;;;;;;;;;5072136;28;20659;-60
2021/09/25 01:44:50;;;;;;;12.98;6.10;;;;;;;;;;5074638;28;20105;-60
2021/09/25 01:47:16;;;;;;;11.02;6.05;;;;;;;;;;5074278;28;20532;-59
2021/09/25 01:49:42;;;;;;;11.02;5.70;;;;;;;;;;5072004;28;20055;-59
2021/09/25 01:52:08;;;;;;;9.15;5.70;;;;;;;;;;5074343;28;20103;-60
2021/09/25 01:54:34;;;;;;;9.50;5.68;;;;;;;;;;5073227;28;20104;-60
2021/09/25 01:57:00;;;;;;;8.65;5.55;;;;;;;;;;5074226;28;20039;-60
2021/09/25 01:59:26;;;;;;;8.40;5.78;;;;;;;;;;5072469;28;20036;-59
2021/09/25 02:01:52;;;;;;;9.38;5.80;;;;;;;;;;5073450;28;20063;-60
2021/09/25 02:04:18;;;;;;;11.65;5.70;;;;;;;;;;5073900;28;20034;-60
2021/09/25 02:06:44;;;;;;;9.60;6.10;;;;;;;;;;5072909;28;20016;-59
2021/09/25 02:09:10;;;;;;;10.93;6.10;;;;;;;;;;5071886;28;20039;-60
2021/09/25 02:11:36;;;;;;;8.07;5.15;;;;;;;;;;5073920;28;20025;-61
2021/09/25 02:14:02;;;;;;;9.00;5.82;;;;;;;;;;5073966;28;20525;-60
2021/09/25 02:16:28;;;;;;;9.88;5.30;;;;;;;;;;5073667;28;20037;-60
2021/09/25 02:18:54;;;;;;;9.45;6.25;;;;;;;;;;5072853;28;20380;-60
2021/09/25 02:21:20;;;;;;;9.30;5.90;;;;;;;;;;5073095;28;20025;-60
2021/09/25 02:23:46;;;;;;;10.40;5.63;;;;;;;;;;5073324;28;20027;-58
2021/09/25 02:26:12;;;;;;;8.85;5.18;;;;;;;;;;5073698;28;20472;-60
2021/09/25 02:28:38;;;;;;;8.07;5.55;;;;;;;;;;5073189;28;20028;-60
2021/09/25 02:31:04;;;;;;;7.72;5.18;;;;;;;;;;5073698;28;20035;-59
2021/09/25 02:33:30;;;;;;;12.98;7.10;;;;;;;;;;5070702;28;20358;-60
2021/09/25 02:35:57;;;;;;;8.50;5.90;;;;;;;;;;5073252;28;20146;-60
2021/09/25 02:38:23;;;;;;;11.57;5.53;;;;;;;;;;5072796;28;20035;-60
2021/09/25 02:40:49;;;;;;;9.60;5.32;;;;;;;;;;5073033;28;20016;-60
2021/09/25 02:43:15;;;;;;;10.85;5.25;;;;;;;;;;5073518;28;20119;-59
2021/09/25 02:45:41;;;;;;;9.45;5.85;;;;;;;;;;5073145;28;20099;-60
2021/09/25 02:48:07;;;;;;;9.35;5.22;;;;;;;;;;5072799;28;20485;-60
2021/09/25 02:50:33;;;;;;;8.07;4.85;;;;;;;;;;5072215;28;20056;-60
2021/09/25 02:52:59;;;;;;;8.70;5.38;;;;;;;;;;5072939;28;20170;-60
2021/09/25 02:55:25;;;;;;;8.82;5.15;;;;;;;;;;5072548;28;20021;-60
2021/09/25 02:57:51;;;;;;;9.20;6.05;;;;;;;;;;5071156;28;20131;-59
2021/09/25 03:00:19;;;;;;;9.93;5.88;;;;;;;;;;5072975;28;20078;-60
2021/09/25 03:02:45;;;;;;;9.10;5.32;;;;;;;;;;5072747;28;20124;-60
2021/09/25 03:05:12;;;;;;;7.57;4.88;;;;;;;;;;5072818;28;20107;-60
2021/09/25 03:07:38;;;;;;;10.07;4.80;;;;;;;;;;5072407;28;20370;-60
2021/09/25 03:10:05;;;;;;;9.10;5.13;;;;;;;;;;5065427;28;20025;-60
2021/09/25 03:12:31;;;;;;;7.75;5.28;;;;;;;;;;5072313;28;20028;-60
2021/09/25 03:14:57;;;;;;;10.88;5.88;;;;;;;;;;5072943;28;20483;-59
2021/09/25 03:17:23;;;;;;;8.88;5.30;;;;;;;;;;5072109;28;20068;-60
2021/09/25 03:19:49;;;;;;;8.63;5.80;;;;;;;;;;5063853;28;20040;-60
2021/09/25 03:22:15;;;;;;;10.23;4.95;;;;;;;;;;5072387;28;20024;-59
2021/09/25 03:24:41;;;;;;;7.57;5.07;;;;;;;;;;5066288;28;20400;-60
2021/09/25 03:27:07;;;;;;;7.43;4.55;;;;;;;;;;5072119;28;20115;-59
2021/09/25 03:29:33;;;;;;;9.43;5.38;;;;;;;;;;5072253;28;20040;-60
2021/09/25 03:31:59;;;;;;;8.60;4.90;;;;;;;;;;5072007;28;20025;-59
2021/09/25 03:34:25;;;;;;;10.02;4.45;;;;;;;;;;5079970;28;20063;-59
2021/09/25 03:36:51;;;;;;;11.25;4.78;;;;;;;;;;5071984;28;20032;-59
2021/09/25 03:39:17;;;;;;;9.88;5.22;;;;;;;;;;5071856;28;20119;-60
2021/09/25 03:41:43;;;;;;;9.30;5.18;;;;;;;;;;5072091;28;20082;-60
2021/09/25 03:44:09;;;;;;;8.73;5.35;;;;;;;;;;5072300;28;20492;-59
2021/09/25 03:46:35;;;;;;;8.13;4.65;;;;;;;;;;5071699;28;20033;-60
2021/09/25 03:49:01;;;;;;;8.27;4.75;;;;;;;;;;5071835;28;20024;-60
2021/09/25 03:51:27;;;;;;;7.85;5.13;;;;;;;;;;5069629;28;20033;-59
2021/09/25 03:53:53;;;;;;;10.02;4.70;;;;;;;;;;5072235;28;20024;-60
2021/09/25 03:56:19;;;;;;;9.70;4.82;;;;;;;;;;5072266;28;20035;-60
2021/09/25 03:58:45;;;;;;;7.03;4.10;;;;;;;;;;5071546;28;20025;-60
2021/09/25 04:01:12;;;;;;;6.40;4.15;;;;;;;;;;5071738;28;20480;-59
2021/09/25 04:03:38;;;;;;;10.77;4.55;;;;;;;;;;5071385;28;20025;-59
2021/09/25 04:06:04;;;;;;;8.23;4.80;;;;;;;;;;5071459;28;20025;-59
2021/09/25 04:08:30;;;;;;;8.60;4.35;;;;;;;;;;5071386;28;20024;-60
2021/09/25 04:10:56;;;;;;;7.43;4.60;;;;;;;;;;5071476;28;20035;-60
2021/09/25 04:13:22;;;;;;;8.55;5.00;;;;;;;;;;5071806;28;20058;-60
2021/09/25 04:15:49;;;;;;;6.95;4.28;;;;;;;;;;5071688;28;20028;-60
2021/09/25 04:18:15;;;;;;;8.40;5.35;;;;;;;;;;5070424;28;20044;-60
2021/09/25 04:20:41;;;;;;;9.18;4.90;;;;;;;;;;5071337;28;20028;-60
2021/09/25 04:23:07;;;;;;;8.45;4.43;;;;;;;;;;5071751;28;20028;-60
2021/09/25 04:25:33;;;;;;;9.77;5.30;;;;;;;;;;5071755;28;20143;-58
2021/09/25 04:28:07;;;;;;;10.00;5.60;;;;;;;;;;5071231;28;20028;-60
2021/09/25 04:30:33;;;;;;;11.35;5.88;;;;;;;;;;5072004;28;20028;-59
2021/09/25 04:33:00;;;;;;;14.27;5.20;;;;;;;;;;5071751;28;20065;-59
2021/09/25 04:35:25;;;;;;;12.45;5.50;;;;;;;;;;5071598;28;20058;-59
2021/09/25 04:37:52;;;;;;;10.75;5.30;;;;;;;;;;5071089;28;20052;-60
2021/09/25 04:40:17;;;;;;;12.75;5.80;;;;;;;;;;5071738;28;20024;-59
2021/09/25 04:42:43;;;;;;;11.18;5.55;;;;;;;;;;5071563;28;20486;-60
2021/09/25 04:45:12;;;;;;;8.18;5.03;;;;;;;;;;5071534;28;20102;-59
2021/09/25 04:47:43;;;;;;;7.95;4.70;;;;;;;;;;5070990;28;20024;-60
2021/09/25 04:50:09;;;;;;;8.70;5.20;;;;;;;;;;5071631;28;20111;-60
2021/09/25 04:52:35;;;;;;;7.53;5.05;;;;;;;;;;5069528;28;20029;-57
2021/09/25 04:55:01;;;;;;;9.18;5.57;;;;;;;;;;5071513;28;20469;-58
2021/09/25 04:57:27;;;;;;;9.10;4.85;;;;;;;;;;5071367;28;20461;-59
2021/09/25 04:59:53;;;;;;;9.63;5.72;;;;;;;;;;5070657;28;20036;-60
2021/09/25 05:02:19;;;;;;;8.70;5.10;;;;;;;;;;5071015;28;20111;-60
2021/09/25 05:04:45;;;;;;;7.25;4.22;;;;;;;;;;5071403;28;20048;-60
2021/09/25 05:07:11;;;;;;;10.65;5.65;;;;;;;;;;5071471;28;20090;-60
2021/09/25 05:09:38;;;;;;;10.32;4.95;;;;;;;;;;5069651;28;20067;-59
2021/09/25 05:12:04;;;;;;;7.78;4.97;;;;;;;;;;5071202;28;20028;-59
2021/09/25 05:14:30;;;;;;;10.30;5.28;;;;;;;;;;5070334;28;20056;-60
2021/09/25 05:16:57;;;;;;;9.07;5.32;;;;;;;;;;5071200;28;20063;-59
2021/09/25 05:19:23;;;;;;;9.30;5.20;;;;;;;;;;5065912;28;20057;-60
2021/09/25 05:21:49;;;;;;;9.52;5.72;;;;;;;;;;5071423;28;20488;-59
2021/09/25 05:24:15;;;;;;;9.45;5.40;;;;;;;;;;5074989;28;20033;-58
2021/09/25 05:26:41;;;;;;;10.13;5.63;;;;;;;;;;5073960;28;20512;-59
2021/09/25 05:29:08;;;;;;;10.38;5.20;;;;;;;;;;5074108;28;20121;-59
2021/09/25 05:31:34;;;;;;;9.70;5.13;;;;;;;;;;5073839;28;20476;-58
2021/09/25 05:34:00;;;;;;;8.93;4.65;;;;;;;;;;5073365;28;20039;-58
2021/09/25 05:36:26;;;;;;;8.13;5.70;;;;;;;;;;5073957;28;20029;-60
2021/09/25 05:38:53;;;;;;;12.85;5.72;;;;;;;;;;5073714;28;20041;-58
2021/09/25 05:41:19;;;;;;;8.77;4.68;;;;;;;;;;5073849;28;20082;-59
2021/09/25 05:43:45;;;;;;;9.68;5.47;;;;;;;;;;5074249;28;20029;-60
2021/09/25 05:46:11;;;;;;;11.65;5.05;;;;;;;;;;5074062;28;20032;-58
2021/09/25 05:48:37;;;;;;;10.15;4.80;;;;;;;;;;5073669;28;20029;-60
2021/09/25 05:51:04;;;;;;;11.32;5.28;;;;;;;;;;5071715;28;20024;-59
2021/09/25 05:53:30;;;;;;;7.53;4.70;;;;;;;;;;5069232;28;20159;-60
2021/09/25 05:55:56;;;;;;;10.48;5.32;;;;;;;;;;5066589;28;20029;-59
2021/09/25 05:58:22;;;;;;;8.85;4.25;;;;;;;;;;5066590;28;20028;-59
2021/09/25 06:00:48;;;;;;;9.05;4.78;;;;;;;;;;5065626;28;20082;-60
2021/09/25 06:03:17;;;;;;;9.63;4.95;;;;;;;;;;5072125;28;20020;-60
2021/09/25 06:05:43;;;;;;;8.23;4.47;;;;;;;;;;5066549;28;20031;-60
2021/09/25 06:08:09;;;;;;;7.93;4.57;;;;;;;;;;5064986;28;20041;-59
2021/09/25 06:10:35;;;;;;;7.47;4.70;;;;;;;;;;5066359;28;20020;-60
2021/09/25 06:13:03;;;;;;;10.38;4.80;;;;;;;;;;5065815;28;20123;-60
2021/09/25 06:15:29;;;;;;;8.55;4.88;;;;;;;;;;5063207;28;20027;-60
2021/09/25 06:17:55;;;;;;;8.23;4.53;;;;;;;;;;5065953;28;20074;-60
2021/09/25 06:20:21;;;;;;;8.57;4.60;;;;;;;;;;5072483;28;20033;-60
2021/09/25 06:22:47;;;;;;;8.15;5.00;;;;;;;;;;5073546;28;20468;-58
2021/09/25 06:25:13;;;;;;;7.82;4.90;;;;;;;;;;5067428;28;20029;-58
2021/09/25 06:27:39;;;;;;;13.27;4.80;;;;;;;;;;5061478;28;20029;-60
2021/09/25 06:30:07;;;;;;;10.65;5.10;;;;;;;;;;5063710;28;20095;-58
2021/09/25 06:32:33;;;;;;;9.30;5.22;;;;;;;;;;5068094;28;20060;-60
2021/09/25 06:34:59;;;;;;;7.60;4.32;;;;;;;;;;5068751;28;20062;-59
2021/09/25 06:37:25;;;;;;;7.80;5.05;;;;;;;;;;5072812;28;20145;-60
2021/09/25 06:39:51;;;;;;;8.18;4.80;;;;;;;;;;5074363;28;20523;-60
2021/09/25 06:42:17;;;;;;;10.88;5.10;;;;;;;;;;5080780;28;20033;-59
2021/09/25 06:44:43;;;;;;;8.07;5.28;;;;;;;;;;5070318;28;20130;-57
2021/09/25 06:47:09;;;;;;;13.32;5.53;;;;;;;;;;5056182;28;20043;-60
2021/09/25 06:49:35;;;;;;;6.97;4.93;;;;;;;;;;5066690;28;20078;-59
2021/09/25 06:52:01;;;;;;;12.27;5.95;;;;;;;;;;5072400;28;20036;-59
2021/09/25 06:54:31;;;;;;;11.70;5.75;;;;;;;;;;5072234;28;20024;-60
2021/09/25 06:56:57;;;;;;;8.45;5.13;;;;;;;;;;5065390;28;20031;-59
2021/09/25 06:59:23;;;;;;;10.43;5.60;;;;;;;;;;5072375;28;20364;-60
2021/09/25 07:01:49;;;;;;;8.75;4.80;;;;;;;;;;5064753;28;20028;-59
2021/09/25 07:04:15;;;;;;;7.82;5.28;;;;;;;;;;5071525;28;20032;-60
2021/09/25 07:06:41;;;;;;;12.18;6.28;;;;;;;;;;5072096;28;20054;-59
2021/09/25 07:09:08;;;;;;;7.97;5.43;;;;;;;;;;5072509;28;20032;-58
2021/09/25 07:11:34;;;;;;;10.30;6.57;;;;;;;;;;5072910;28;20024;-58
2021/09/25 07:14:00;;;;;;;9.07;5.72;;;;;;;;;;5073015;28;20364;-58
2021/09/25 07:16:26;;;;;;;14.27;5.75;;;;;;;;;;5063535;28;20036;-59
2021/09/25 07:18:52;;;;;;;6.50;4.57;;;;;;;;;;5072249;28;20127;-59
2021/09/25 07:21:18;;;;;;;8.82;4.80;;;;;;;;;;5072925;28;20024;-59
2021/09/25 07:23:44;;;;;;;8.95;4.97;;;;;;;;;;5072568;28;20095;-58
2021/09/25 07:26:10;;;;;;;14.25;5.90;;;;;;;;;;5070340;28;20086;-58
2021/09/25 07:28:36;;;;;;;10.35;5.82;;;;;;;;;;5063291;28;20028;-58
2021/09/25 07:31:03;;;;;;;6.55;4.57;;;;;;;;;;5072093;28;20396;-59
2021/09/25 07:33:29;;;;;;;9.82;5.15;;;;;;;;;;5076545;28;20036;-59
2021/09/25 07:35:55;;;;;;;9.38;5.00;;;;;;;;;;5071681;28;20028;-58
2021/09/25 07:38:21;;;;;;;9.13;5.10;;;;;;;;;;5071391;28;20119;-59
2021/09/25 07:40:47;;;;;;;7.43;5.25;;;;;;;;;;5070575;28;20044;-58
2021/09/25 07:43:13;;;;;;;9.68;4.82;;;;;;;;;;5071899;28;20021;-60
2021/09/25 07:45:39;;;;;;;5.15;4.00;;;;;;;;;;5069610;28;20102;-59
2021/09/25 07:48:05;;;;;;;9.25;5.13;;;;;;;;;;5071453;28;20107;-60
2021/09/25 07:50:31;;;;;;;8.73;5.10;;;;;;;;;;5070328;28;20102;-60
2021/09/25 07:52:57;;;;;;;8.57;5.78;;;;;;;;;;5073345;28;20039;-58
2021/09/25 07:55:24;;;;;;;7.78;4.35;;;;;;;;;;5069255;28;20086;-58
2021/09/25 07:57:50;;;;;;;9.63;5.20;;;;;;;;;;5066656;28;20644;-58
2021/09/25 08:00:16;;;;;;;7.60;5.13;;;;;;;;;;5071713;28;20089;-59
2021/09/25 08:02:43;;;;;;;8.73;5.53;;;;;;;;;;5071014;28;20044;-59
2021/09/25 08:05:10;;;;;;;7.15;4.53;;;;;;;;;;5071721;28;20036;-60
2021/09/25 08:07:36;;;;;;;10.18;6.15;;;;;;;;;;5071405;28;20074;-60
2021/09/25 08:10:03;;;;;;;10.35;5.97;;;;;;;;;;5071807;28;21511;-59
2021/09/25 08:12:29;;;;;;;9.43;5.75;;;;;;;;;;5071841;28;20086;-58
2021/09/25 08:14:55;;;;;;;13.23;5.90;;;;;;;;;;5066431;28;20032;-58
2021/09/25 08:17:21;;;;;;;8.88;5.22;;;;;;;;;;5066776;28;20053;-60
2021/09/25 08:19:47;;;;;;;11.25;6.05;;;;;;;;;;5070525;28;20109;-60
2021/09/25 08:22:13;;;;;;;8.88;5.95;;;;;;;;;;5071282;28;20033;-59
2021/09/25 08:24:39;;;;;;;9.50;6.10;;;;;;;;;;5068291;28;20027;-59
2021/09/25 08:27:05;;;;;;;13.35;5.90;;;;;;;;;;5067605;28;20392;-59
2021/09/25 08:29:31;;;;;;;7.10;4.85;;;;;;;;;;5069792;28;20036;-60
2021/09/25 08:31:57;;;;;;;10.02;5.90;;;;;;;;;;5071197;28;20044;-60
2021/09/25 08:34:23;;;;;;;6.72;5.03;;;;;;;;;;5072810;28;20354;-59
2021/09/25 08:36:49;;;;;;;8.63;5.60;;;;;;;;;;5071553;28;20115;-59
2021/09/25 08:39:17;;;;;;;7.75;5.25;;;;;;;;;;5070904;28;20028;-60
2021/09/25 08:41:43;;;;;;;9.52;5.57;;;;;;;;;;5070298;28;20036;-60
2021/09/25 08:44:10;;;;;;;8.40;5.13;;;;;;;;;;5071570;28;20027;-60
2021/09/25 08:46:36;;;;;;;8.45;4.68;;;;;;;;;;5071138;28;20474;-59
2021/09/25 08:49:04;;;;;;;7.95;4.82;;;;;;;;;;5070358;28;20032;-60
2021/09/25 08:51:30;;;;;;;8.82;4.97;;;;;;;;;;5068043;28;20063;-59
2021/09/25 08:53:57;;;;;;;10.65;5.35;;;;;;;;;;5074266;28;20107;-60
2021/09/25 08:56:23;;;;;;;9.30;5.45;;;;;;;;;;5074575;28;20525;-59
2021/09/25 08:58:49;;;;;;;6.43;4.45;;;;;;;;;;5075055;28;20119;-59
2021/09/25 09:01:19;;;;;;;11.10;6.10;;;;;;;;;;5075552;28;20099;-60
2021/09/25 09:03:47;;;;;;;7.80;4.75;;;;;;;;;;5074856;28;20031;-59
2021/09/25 09:06:15;;;;;;;12.68;5.05;;;;;;;;;;5075243;28;20029;-58
2021/09/25 09:08:42;;;;;;;7.45;4.40;;;;;;;;;;5073996;28;20128;-60
2021/09/25 09:11:08;;;;;;;9.65;5.07;;;;;;;;;;5075235;28;20028;-60
2021/09/25 09:13:38;;;;;;;8.63;5.53;;;;;;;;;;5075288;28;20020;-58
2021/09/25 09:16:06;;;;;;;6.38;4.75;;;;;;;;;;5073713;28;20082;-59
2021/09/25 09:18:34;;;;;;;8.95;5.40;;;;;;;;;;5074448;28;20040;-60
2021/09/25 09:21:05;;;;;;;10.52;5.35;;;;;;;;;;5074852;28;20119;-60
2021/09/25 09:23:32;;;;;;;6.53;5.28;;;;;;;;;;5074218;28;20361;-60
2021/09/25 09:25:59;;;;;;;6.20;4.38;;;;;;;;;;5074528;28;20028;-60
2021/09/25 09:28:30;;;;;;;9.27;4.72;;;;;;;;;;5074741;28;20053;-58
2021/09/25 09:30:56;;;;;;;6.90;4.72;;;;;;;;;;5069393;28;20465;-60
2021/09/25 09:33:33;;;;;;;6.63;4.60;;;;;;;;;;5074595;28;20086;-60
2021/09/25 09:36:16;;;;;;;8.23;4.78;;;;;;;;;;5074754;28;20384;-60
2021/09/25 09:38:50;;;;;;;8.17;5.07;;;;;;;;;;5068576;28;20047;-60
2021/09/25 09:41:16;;;;;;;7.38;4.78;;;;;;;;;;5074306;28;20294;-59
2021/09/25 09:43:42;;;;;;;7.82;4.57;;;;;;;;;;5074865;28;20091;-57
2021/09/25 09:46:08;;;;;;;5.78;4.75;;;;;;;;;;5074342;28;20021;-58
2021/09/25 09:48:34;;;;;;;7.05;4.40;;;;;;;;;;5073835;28;20028;-58
2021/09/25 09:51:00;;;;;;;6.38;4.80;;;;;;;;;;5071919;28;20044;-60
2021/09/25 09:53:29;;;;;;;7.35;5.38;;;;;;;;;;5072160;28;20067;-59
2021/09/25 09:56:16;;;;;;;9.32;5.05;;;;;;;;;;5073377;28;20111;-60
2021/09/25 09:58:42;;;;;;;5.78;4.28;;;;;;;;;;5062855;28;20119;-60
2021/09/25 10:01:08;;;;;;;6.28;4.35;;;;;;;;;;5069549;28;20112;-59
2021/09/25 10:03:34;;;;;;;5.60;4.50;;;;;;;;;;5066875;28;20028;-59
2021/09/25 10:06:00;;;;;;;4.00;3.00;;;;;;;;;;5067814;28;20111;-60
2021/09/25 10:08:27;;;;;;;7.85;4.40;;;;;;;;;;5073062;28;20570;-59
2021/09/25 10:10:53;;;;;;;7.80;4.03;;;;;;;;;;5073522;28;20041;-59
2021/09/25 10:13:20;;;;;;;4.60;3.28;;;;;;;;;;5074211;28;20571;-60
2021/09/25 10:15:46;;;;;;;5.88;4.20;;;;;;;;;;5072591;28;20059;-60
2021/09/25 10:18:12;;;;;;;6.68;3.53;;;;;;;;;;5071723;28;20362;-60
2021/09/25 10:20:38;;;;;;;5.68;3.97;;;;;;;;;;5072650;28;20043;-60
2021/09/25 10:23:04;;;;;;;7.68;4.03;;;;;;;;;;5073273;28;20099;-60
2021/09/25 10:25:30;;;;;;;5.38;3.70;;;;;;;;;;5073904;28;20025;-59
2021/09/25 10:27:57;;;;;;;4.88;3.47;;;;;;;;;;5073335;28;20528;-58
2021/09/25 10:30:34;;;;;;;5.28;3.90;;;;;;;;;;5073625;28;20025;-58
2021/09/25 10:33:12;;;;;;;5.47;3.50;;;;;;;;;;5072159;28;20473;-60
2021/09/25 10:35:38;;;;;;;3.28;2.90;;;;;;;;;;5072212;28;20112;-59
2021/09/25 10:38:04;;;;;;;5.40;2.72;;;;;;;;;;5069971;28;20028;-58
2021/09/25 10:40:31;;;;;;;5.50;3.92;;;;;;;;;;5065911;28;20020;-59
2021/09/25 10:43:05;;;;;;;10.23;4.78;;;;;;;;;;5064184;28;20700;-59
2021/09/25 10:45:38;;;;;;;5.57;4.03;;;;;;;;;;5073782;28;20053;-59
2021/09/25 10:48:10;;;;;;;5.53;3.72;;;;;;;;;;5059753;28;20024;-59
2021/09/25 10:50:38;;;;;;;6.28;3.97;;;;;;;;;;5063406;28;20094;-60
2021/09/25 10:53:06;;;;;;;5.65;3.95;;;;;;;;;;5062471;28;20796;-56
2021/09/25 10:55:33;;;;;;;5.25;4.18;;;;;;;;;;5067796;28;20033;-58
2021/09/25 10:58:11;;;;;;;5.78;3.88;;;;;;;;;;5068183;28;20028;-59
2021/09/25 11:00:56;;;;;;;4.68;4.10;;;;;;;;;;5070674;28;20060;-59
2021/09/25 11:03:43;;;;;;;4.63;3.63;;;;;;;;;;5066554;28;20460;-59
2021/09/25 11:06:09;;;;;;;6.13;4.60;;;;;;;;;;5067983;28;20097;-60
2021/09/25 11:08:36;;;;;;;4.78;3.95;;;;;;;;;;5071915;28;20028;-58
2021/09/25 11:11:06;;;;;;;4.65;3.30;;;;;;;;;;5071607;28;20050;-59
2021/09/25 11:13:50;;;;;;;5.40;4.13;;;;;;;;;;5072533;28;20428;-58
2021/09/25 11:16:16;;;;;;;5.47;3.70;;;;;;;;;;5070705;28;20393;-59
2021/09/25 11:18:51;;;;;;;5.43;3.60;;;;;;;;;;5072044;28;20126;-58
2021/09/25 11:21:17;;;;;;;3.85;3.13;;;;;;;;;;5072706;28;20158;-59
2021/09/25 11:23:44;;;;;;;5.22;3.92;;;;;;;;;;5072751;28;20107;-59
2021/09/25 11:26:11;;;;;;;5.15;2.92;;;;;;;;;;5072626;28;20044;-59
2021/09/25 11:28:37;;;;;;;5.07;3.60;;;;;;;;;;5061920;28;20024;-58
2021/09/25 11:31:07;;;;;;;4.18;3.00;;;;;;;;;;5058499;28;20024;-58
2021/09/25 11:33:33;;;;;;;6.15;3.17;;;;;;;;;;5072223;28;20036;-58
2021/09/25 11:36:06;;;;;;;3.80;2.65;;;;;;;;;;5072540;28;20040;-59
2021/09/25 11:38:32;;;;;;;4.97;2.95;;;;;;;;;;5072133;28;20107;-59
2021/09/25 11:40:58;;;;;;;4.05;3.13;;;;;;;;;;5071350;28;20028;-58
2021/09/25 11:43:24;;;;;;;7.93;2.92;;;;;;;;;;5066503;28;20047;-60
2021/09/25 11:45:51;;;;;;;4.10;2.15;;;;;;;;;;5070808;28;20029;-59
2021/09/25 11:48:18;;;;;;;3.83;3.00;;;;;;;;;;5069069;28;20032;-58
2021/09/25 11:50:46;;;;;;;4.93;2.85;;;;;;;;;;5070887;28;20031;-59
2021/09/25 11:53:16;;;;;;;4.15;2.72;;;;;;;;;;5065962;28;20810;-59
2021/09/25 11:55:43;;;;;;;3.38;2.72;;;;;;;;;;5068296;28;20025;-60
2021/09/25 11:58:10;;;;;;;3.50;2.85;;;;;;;;;;5071297;28;20103;-60
2021/09/25 12:00:41;;;;;;;3.40;2.50;;;;;;;;;;5069307;28;20079;-59
2021/09/25 12:03:08;;;;;;;4.07;2.85;;;;;;;;;;5070788;28;20094;-58
2021/09/25 12:05:35;;;;;;;3.65;2.78;;;;;;;;;;5071962;28;20039;-59
2021/09/25 12:08:03;;;;;;;4.18;2.45;;;;;;;;;;5069960;28;20028;-59
2021/09/25 12:10:32;;;;;;;3.58;2.67;;;;;;;;;;5071681;28;20029;-59
2021/09/25 12:13:00;;;;;;;3.33;2.50;;;;;;;;;;5054453;28;20136;-59
2021/09/25 12:15:28;;;;;;;4.57;2.53;;;;;;;;;;5071307;28;20461;-59
2021/09/25 12:18:07;;;;;;;4.22;2.85;;;;;;;;;;5070050;28;20044;-58
2021/09/25 12:20:33;;;;;;;3.00;2.42;;;;;;;;;;5061470;28;20119;-58
2021/09/25 12:23:00;;;;;;;4.72;2.75;;;;;;;;;;5066675;28;20103;-58
2021/09/25 12:25:26;;;;;;;3.53;2.83;;;;;;;;;;5069210;28;20113;-59
2021/09/25 12:27:52;;;;;;;4.97;2.72;;;;;;;;;;5070996;28;20153;-58
2021/09/25 12:30:18;;;;;;;4.53;2.60;;;;;;;;;;5065543;28;20059;-58
2021/09/25 12:32:59;;;;;;;7.50;2.83;;;;;;;;;;5071227;28;20031;-60
2021/09/25 12:35:25;;;;;;;4.15;2.97;;;;;;;;;;5069000;28;20059;-56
2021/09/25 12:37:51;;;;;;;3.38;2.35;;;;;;;;;;5070807;28;20025;-57
2021/09/25 12:40:18;;;;;;;3.97;2.45;;;;;;;;;;5067719;28;20071;-59
2021/09/25 12:42:44;;;;;;;3.97;2.60;;;;;;;;;;5069797;28;20025;-58
2021/09/25 12:45:13;;;;;;;4.28;2.70;;;;;;;;;;5069555;28;20033;-59
2021/09/25 12:47:39;;;;;;;3.15;2.53;;;;;;;;;;5066319;28;20028;-60
2021/09/25 12:50:14;;;;;;;4.35;3.13;;;;;;;;;;5068976;28;20041;-59
2021/09/25 12:52:41;;;;;;;4.35;2.83;;;;;;;;;;5060221;28;20039;-58
2021/09/25 12:55:09;;;;;;;4.32;3.30;;;;;;;;;;5069460;28;20029;-58
2021/09/25 12:57:35;;;;;;;4.03;2.88;;;;;;;;;;5068714;28;20032;-59
2021/09/25 13:00:04;;;;;;;4.07;2.88;;;;;;;;;;5059375;28;20040;-58
2021/09/25 13:02:30;;;;;;;4.53;3.30;;;;;;;;;;5057789;28;20073;-59
2021/09/25 13:04:58;;;;;;;3.97;2.80;;;;;;;;;;5062467;28;20111;-58
2021/09/25 13:07:24;;;;;;;4.28;2.75;;;;;;;;;;5064069;28;20032;-60
2021/09/25 13:09:54;;;;;;;3.20;2.75;;;;;;;;;;5067069;28;20108;-58
2021/09/25 13:12:28;;;;;;;4.55;2.75;;;;;;;;;;5072662;28;20024;-59
2021/09/25 13:15:08;;;;;;;3.47;2.58;;;;;;;;;;5066277;28;20035;-59
2021/09/25 13:17:35;;;;;;;4.85;2.92;;;;;;;;;;5065752;28;20036;-59
2021/09/25 13:20:01;;;;;;;4.22;2.80;;;;;;;;;;5061866;28;20127;-58
2021/09/25 13:22:28;;;;;;;20.67;6.55;;;;;;;;;;5071211;28;20360;-58
2021/09/25 13:24:55;;;;;;;19.15;7.57;;;;;;;;;;5070779;28;20032;-60
2021/09/25 13:27:22;;;;;;;11.20;4.53;;;;;;;;;;5070897;28;20071;-59
2021/09/25 13:29:49;;;;;;;3.70;2.67;;;;;;;;;;5067641;28;20137;-59
2021/09/25 13:32:15;;;;;;;6.35;3.40;;;;;;;;;;5074260;28;20033;-59
2021/09/25 13:34:41;;;;;;;6.95;3.58;;;;;;;;;;5069510;28;20060;-59
2021/09/25 13:37:08;;;;;;;12.27;5.78;;;;;;;;;;5069754;28;20055;-60
2021/09/25 13:39:34;;;;;;;5.85;3.40;;;;;;;;;;5068389;28;20029;-58
2021/09/25 13:42:00;;;;;;;3.65;3.08;;;;;;;;;;5074423;28;20020;-58
2021/09/25 13:44:26;;;;;;;14.82;4.90;;;;;;;;;;5074583;28;20036;-58
2021/09/25 13:46:53;;;;;;;4.95;3.50;;;;;;;;;;5066533;28;20055;-59
2021/09/25 13:49:19;;;;;;;7.60;3.63;;;;;;;;;;5073926;28;20024;-58
2021/09/25 13:51:45;;;;;;;5.18;2.95;;;;;;;;;;5073828;28;20503;-58
2021/09/25 13:54:11;;;;;;;4.15;2.75;;;;;;;;;;5074013;28;20036;-57
2021/09/25 13:56:37;;;;;;;3.22;2.47;;;;;;;;;;5069935;28;20028;-58
2021/09/25 13:59:03;;;;;;;4.65;3.22;;;;;;;;;;5073712;28;20037;-60
2021/09/25 14:01:29;;;;;;;4.40;2.90;;;;;;;;;;5074235;28;20060;-60
2021/09/25 14:03:57;;;;;;;4.78;2.33;;;;;;;;;;5073806;28;20159;-59
2021/09/25 14:06:22;;;;;;;4.47;1.92;;;;;;;;;;5074288;28;20035;-60
2021/09/25 14:08:48;;;;;;;5.28;1.73;;;;;;;;;;5073998;28;20358;-60
2021/09/25 14:11:15;;;;;;;2.60;1.90;;;;;;;;;;5073777;28;20032;-59
2021/09/25 14:13:41;;;;;;;2.83;1.83;;;;;;;;;;5072971;28;20040;-60
2021/09/25 14:16:10;;;;;;;2.85;1.80;;;;;;;;;;5066996;28;20070;-60
2021/09/25 14:18:37;;;;;;;4.68;1.85;;;;;;;;;;5072481;28;20079;-59
2021/09/25 14:21:03;;;;;;;2.40;1.48;;;;;;;;;;5063778;28;20046;-57
2021/09/25 14:23:29;;;;;;;3.13;1.60;;;;;;;;;;5073997;28;20484;-58
2021/09/25 14:25:55;;;;;;;2.85;1.27;;;;;;;;;;5064433;28;20116;-58
2021/09/25 14:28:21;;;;;;;17.05;5.30;;;;;;;;;;5073050;28;20059;-58
2021/09/25 14:30:48;;;;;;;2.40;1.67;;;;;;;;;;5076045;28;20074;-57
2021/09/25 14:33:14;;;;;;;8.52;2.50;;;;;;;;;;5082316;28;20337;-57
2021/09/25 14:35:40;;;;;;;5.63;2.67;;;;;;;;;;5073889;28;20107;-58
2021/09/25 14:38:07;;;;;;;27.15;9.68;;;;;;;;;;5071838;28;20029;-57